createdAt,value
2019-02-04T00:00:07.680Z,68.38
2019-02-04T00:04:12.080Z,68.62
2019-02-04T00:08:16.494Z,68.37
2019-02-04T00:12:20.999Z,68.56
2019-02-04T00:16:25.375Z,68.51
2019-02-04T00:20:29.682Z,68.40
2019-02-04T00:24:34.027Z,68.21
2019-02-04T00:28:38.294Z,68.20
2019-02-04T00:32:43.014Z,68.07
2019-02-04T00:36:47.278Z,68.10
2019-02-04T00:40:51.750Z,67.91
2019-02-04T00:44:56.002Z,68.02
2019-02-04T00:49:00.717Z,67.84
2019-02-04T00:53:06.479Z,68.10
2019-02-04T00:57:10.868Z,68.13
2019-02-04T01:01:24.297Z,68.34
2019-02-04T01:05:33.490Z,68.33
2019-02-04T01:09:38.521Z,68.43
2019-02-04T01:13:42.860Z,68.64
2019-02-04T01:17:47.131Z,68.67
2019-02-04T01:21:51.540Z,68.38
2019-02-04T01:25:55.843Z,68.40
2019-02-04T01:30:00.107Z,68.32
2019-02-04T01:34:09.595Z,68.16
2019-02-04T01:38:14.081Z,68.16
2019-02-04T01:42:18.327Z,68.26
2019-02-04T01:46:22.629Z,68.17
2019-02-04T01:50:26.974Z,68.40
2019-02-04T01:54:31.457Z,68.33
2019-02-04T01:58:38.592Z,68.33
2019-02-04T02:02:42.782Z,68.44
2019-02-04T02:06:47.213Z,68.50
2019-02-04T02:10:51.506Z,68.58
2019-02-04T02:14:55.769Z,68.61
2019-02-04T02:19:00.073Z,68.92
2019-02-04T02:23:04.886Z,68.67
2019-02-04T02:27:09.180Z,68.79
2019-02-04T02:31:13.781Z,68.52
2019-02-04T02:35:18.249Z,68.51
2019-02-04T02:39:22.836Z,68.37
2019-02-04T02:43:27.429Z,68.31
2019-02-04T02:47:38.313Z,68.32
2019-02-04T02:51:39.118Z,68.42
2019-02-04T02:55:43.427Z,68.51
2019-02-04T02:59:47.740Z,68.51
2019-02-04T03:03:51.988Z,68.56
2019-02-04T03:07:56.275Z,68.66
2019-02-04T03:12:00.536Z,68.43
2019-02-04T03:16:05.191Z,68.60
2019-02-04T03:20:09.925Z,68.68
2019-02-04T03:24:14.313Z,68.61
2019-02-04T03:28:18.643Z,68.47
2019-02-04T03:32:23.218Z,68.29
2019-02-04T03:36:27.503Z,68.18
2019-02-04T03:40:33.096Z,67.92
2019-02-04T03:44:37.319Z,68.01
2019-02-04T03:48:41.600Z,67.25
2019-02-04T03:52:45.883Z,67.33
2019-02-04T03:56:50.159Z,67.12
2019-02-04T04:00:54.833Z,66.83
2019-02-04T04:04:59.120Z,66.76
2019-02-04T04:09:04.287Z,66.26
2019-02-04T04:13:08.844Z,66.04
